Time;durP1;ratioP1;P1;durP2;ratioP2;P2;SDS_P1;SDS_P2;PMS_P1;PMS_P2;Temp;Humidity;BMP_temperature;BMP_pressure;BME280_temperature;BME280_humidity;BME280_pressure;Samples;Min_cycle;Max_cycle;Signal;HPM_P1;HPM_P2
2022/08/21 00:00:55;;;;;;;;;;;20.90;74.30;;;;;;5047503;28;19912;-68
2022/08/21 00:03:21;;;;;;;;;;;20.90;74.30;;;;;;5051778;28;19921;-68
2022/08/21 00:05:49;;;;;;;;;;;20.90;74.20;;;;;;5048446;28;19999;-68
2022/08/21 00:08:15;;;;;;;;;;;20.90;74.40;;;;;;5047402;28;19913;-68
2022/08/21 00:10:42;;;;;;;;;;;20.90;74.20;;;;;;5047364;28;20312;-68
2022/08/21 00:13:08;;;;;;;;;;;20.90;74.70;;;;;;5048385;28;19913;-68
2022/08/21 00:15:35;;;;;;;;;;;20.90;74.90;;;;;;5047435;28;19919;-68
2022/08/21 00:18:00;;;;;;;;;;;20.90;75.00;;;;;;5047329;28;20320;-68
2022/08/21 00:20:26;;;;;;;;;;;20.80;74.90;;;;;;5047118;28;19920;-68
2022/08/21 00:22:52;;;;;;;;;;;20.80;74.80;;;;;;5050715;28;19918;-68
2022/08/21 00:25:18;;;;;;;;;;;20.80;74.90;;;;;;5050992;28;20637;-68
2022/08/21 00:27:45;;;;;;;;;;;20.80;74.80;;;;;;5049837;28;19913;-68
2022/08/21 00:30:12;;;;;;;;;;;20.80;75.50;;;;;;5029161;28;20288;-68
2022/08/21 00:32:38;;;;;;;;;;;20.70;75.70;;;;;;5052242;28;19920;-68
2022/08/21 00:35:05;;;;;;;;;;;20.70;75.60;;;;;;5046968;28;19935;-68
2022/08/21 00:37:31;;;;;;;;;;;20.70;75.10;;;;;;5052049;28;19923;-68
2022/08/21 00:39:56;;;;;;;;;;;20.70;75.10;;;;;;5032874;28;19913;-68
2022/08/21 00:42:22;;;;;;;;;;;20.70;76.10;;;;;;5046915;28;20611;-68
2022/08/21 00:44:48;;;;;;;;;;;20.70;76.00;;;;;;5046739;28;19942;-68
2022/08/21 00:47:14;;;;;;;;;;;20.60;76.20;;;;;;5028926;28;20007;-68
2022/08/21 00:49:39;;;;;;;;;;;20.60;76.30;;;;;;5046813;28;20042;-68
2022/08/21 00:52:06;;;;;;;;;;;20.60;76.30;;;;;;5046545;28;19909;-68
2022/08/21 00:54:33;;;;;;;;;;;20.60;76.30;;;;;;5053603;28;19924;-68
2022/08/21 00:57:00;;;;;;;;;;;20.60;76.50;;;;;;5065983;28;20624;-68
2022/08/21 00:59:27;;;;;;;;;;;20.50;76.30;;;;;;5065917;28;20661;-68
2022/08/21 01:01:53;;;;;;;;;;;20.50;76.50;;;;;;5065006;28;19919;-68
2022/08/21 01:04:18;;;;;;;;;;;20.50;76.50;;;;;;5046320;28;19917;-68
2022/08/21 01:06:44;;;;;;;;;;;20.50;76.50;;;;;;5044522;28;19952;-68
2022/08/21 01:09:10;;;;;;;;;;;20.50;76.60;;;;;;5065241;28;19913;-68
2022/08/21 01:11:36;;;;;;;;;;;20.50;76.50;;;;;;5058118;28;19923;-68
2022/08/21 01:14:02;;;;;;;;;;;20.50;76.60;;;;;;5046522;28;19955;-68
2022/08/21 01:16:27;;;;;;;;;;;20.50;76.80;;;;;;5046411;28;19966;-68
2022/08/21 01:18:53;;;;;;;;;;;20.50;76.80;;;;;;5046319;28;19934;-69
2022/08/21 01:21:20;;;;;;;;;;;20.50;76.80;;;;;;5028350;28;19913;-68
2022/08/21 01:23:48;;;;;;;;;;;20.50;76.80;;;;;;5046266;28;20652;-68
2022/08/21 01:26:15;;;;;;;;;;;20.50;76.90;;;;;;5046050;28;19913;-68
2022/08/21 01:28:52;;;;;;;;;;;20.40;76.90;;;;;;5042457;28;19920;-68
2022/08/21 01:31:19;;;;;;;;;;;20.40;77.10;;;;;;5051451;28;19960;-68
2022/08/21 01:33:44;;;;;;;;;;;20.40;77.00;;;;;;5061779;28;19927;-68
2022/08/21 01:36:10;;;;;;;;;;;20.30;77.20;;;;;;5060472;28;19917;-68
2022/08/21 01:38:35;;;;;;;;;;;20.40;77.30;;;;;;5055995;28;19912;-68
2022/08/21 01:41:01;;;;;;;;;;;20.40;77.30;;;;;;5055128;28;19966;-68
2022/08/21 01:43:26;;;;;;;;;;;20.40;77.40;;;;;;5065282;28;19923;-68
2022/08/21 01:45:52;;;;;;;;;;;20.40;77.50;;;;;;5065046;28;19912;-68
2022/08/21 01:48:17;;;;;;;;;;;20.30;77.40;;;;;;5043114;28;19913;-68
2022/08/21 01:50:43;;;;;;;;;;;20.30;77.60;;;;;;5045684;28;19998;-68
2022/08/21 01:53:08;;;;;;;;;;;20.30;77.60;;;;;;5045689;28;19913;-68
2022/08/21 01:55:34;;;;;;;;;;;20.30;77.70;;;;;;5037109;28;19924;-67
2022/08/21 01:57:59;;;;;;;;;;;20.30;77.80;;;;;;5045845;28;19909;-68
2022/08/21 02:00:25;;;;;;;;;;;20.20;77.70;;;;;;5027732;28;19908;-68
2022/08/21 02:02:51;;;;;;;;;;;20.20;77.80;;;;;;5049019;28;20031;-68
2022/08/21 02:05:16;;;;;;;;;;;20.20;77.90;;;;;;5045827;28;19982;-67
2022/08/21 02:07:50;;;;;;;;;;;20.20;77.80;;;;;;5045895;28;19913;-68
2022/08/21 02:10:17;;;;;;;;;;;20.20;77.90;;;;;;5045811;28;19920;-68
2022/08/21 02:12:43;;;;;;;;;;;20.10;77.90;;;;;;5045659;28;19955;-68
2022/08/21 02:15:09;;;;;;;;;;;20.10;77.90;;;;;;5045737;28;20030;-67
2022/08/21 02:18:01;;;;;;;;;;;20.10;78.00;;;;;;5045441;28;20258;-67
2022/08/21 02:20:31;;;;;;;;;;;20.10;78.10;;;;;;5042816;28;19967;-68
2022/08/21 02:22:57;;;;;;;;;;;20.10;78.10;;;;;;5045893;28;19915;-68
2022/08/21 02:25:23;;;;;;;;;;;20.00;78.00;;;;;;5045830;28;19913;-67
2022/08/21 02:27:49;;;;;;;;;;;20.00;78.10;;;;;;5046529;28;19913;-67
2022/08/21 02:30:16;;;;;;;;;;;20.00;78.20;;;;;;5045648;28;20407;-68
2022/08/21 02:32:42;;;;;;;;;;;20.00;78.20;;;;;;5056697;28;19917;-68
2022/08/21 02:35:09;;;;;;;;;;;20.00;78.30;;;;;;5046210;28;19920;-68
2022/08/21 02:37:41;;;;;;;;;;;19.90;78.20;;;;;;5048017;28;20682;-68
2022/08/21 02:40:09;;;;;;;;;;;19.90;78.20;;;;;;5045730;28;19919;-68
2022/08/21 02:42:35;;;;;;;;;;;19.90;78.20;;;;;;5047938;28;19916;-68
2022/08/21 02:45:00;;;;;;;;;;;19.90;78.30;;;;;;5052778;28;19962;-68
2022/08/21 02:47:26;;;;;;;;;;;19.90;78.30;;;;;;5053494;28;20002;-68
2022/08/21 02:49:51;;;;;;;;;;;19.90;78.30;;;;;;5049199;28;20297;-68
2022/08/21 02:52:17;;;;;;;;;;;19.90;78.40;;;;;;5048854;28;19920;-68
2022/08/21 02:54:42;;;;;;;;;;;19.90;78.40;;;;;;5048809;28;19909;-68
2022/08/21 02:57:08;;;;;;;;;;;19.80;78.30;;;;;;5049053;28;19966;-67
2022/08/21 02:59:33;;;;;;;;;;;19.80;78.40;;;;;;5048886;28;19920;-68
2022/08/21 03:01:59;;;;;;;;;;;19.80;78.40;;;;;;5052904;28;20304;-68
2022/08/21 03:04:24;;;;;;;;;;;19.80;78.40;;;;;;5039391;28;20035;-68
2022/08/21 03:06:50;;;;;;;;;;;19.80;78.50;;;;;;5049243;28;19982;-68
2022/08/21 03:09:15;;;;;;;;;;;19.70;78.40;;;;;;5048382;28;19919;-67
2022/08/21 03:11:41;;;;;;;;;;;19.70;78.40;;;;;;5030471;28;19978;-68
2022/08/21 03:14:07;;;;;;;;;;;19.70;78.50;;;;;;5061711;28;20334;-68
2022/08/21 03:16:32;;;;;;;;;;;19.70;78.50;;;;;;5068209;28;20433;-67
2022/08/21 03:18:58;;;;;;;;;;;19.70;78.60;;;;;;5053763;28;19920;-68
2022/08/21 03:21:23;;;;;;;;;;;19.70;78.60;;;;;;5030420;28;19920;-68
2022/08/21 03:23:49;;;;;;;;;;;19.60;78.50;;;;;;5048634;28;19925;-67
2022/08/21 03:26:14;;;;;;;;;;;19.60;78.60;;;;;;5048074;28;20519;-67
2022/08/21 03:28:40;;;;;;;;;;;19.60;78.50;;;;;;5048268;28;19944;-68
2022/08/21 03:31:05;;;;;;;;;;;19.60;78.60;;;;;;5047928;28;19909;-68
2022/08/21 03:33:31;;;;;;;;;;;19.60;78.60;;;;;;5036867;28;20147;-68
2022/08/21 03:36:00;;;;;;;;;;;19.60;78.70;;;;;;5052798;28;20003;-68
2022/08/21 03:38:26;;;;;;;;;;;19.60;78.70;;;;;;5048155;28;20000;-68
2022/08/21 03:40:51;;;;;;;;;;;19.50;78.60;;;;;;5047515;28;19917;-68
2022/08/21 03:43:17;;;;;;;;;;;19.50;78.70;;;;;;5047864;28;19913;-68
2022/08/21 03:45:43;;;;;;;;;;;19.50;78.80;;;;;;5058871;28;20625;-68
2022/08/21 03:48:09;;;;;;;;;;;19.50;78.80;;;;;;5049103;28;20403;-68
2022/08/21 03:50:35;;;;;;;;;;;19.50;78.70;;;;;;5066485;28;19912;-68
2022/08/21 03:53:01;;;;;;;;;;;19.50;78.80;;;;;;5057011;28;20018;-68
2022/08/21 03:55:26;;;;;;;;;;;19.50;78.80;;;;;;5047982;28;19909;-68
2022/08/21 03:57:52;;;;;;;;;;;19.40;78.80;;;;;;5047009;28;19909;-68
2022/08/21 04:00:18;;;;;;;;;;;19.40;78.90;;;;;;5047907;28;19922;-69
2022/08/21 04:02:45;;;;;;;;;;;19.40;78.90;;;;;;5050346;28;19924;-67
2022/08/21 04:05:11;;;;;;;;;;;19.40;78.90;;;;;;5047630;28;20564;-68
2022/08/21 04:07:37;;;;;;;;;;;19.40;78.90;;;;;;5042461;28;20014;-68
2022/08/21 04:10:03;;;;;;;;;;;19.40;78.80;;;;;;5035407;28;19917;-67
2022/08/21 04:12:29;;;;;;;;;;;19.40;79.00;;;;;;5046166;28;19913;-68
2022/08/21 04:14:54;;;;;;;;;;;19.30;78.90;;;;;;5067022;28;19958;-68
2022/08/21 04:17:20;;;;;;;;;;;19.30;78.90;;;;;;5067019;28;19920;-68
2022/08/21 04:19:45;;;;;;;;;;;19.30;79.00;;;;;;5066041;28;19920;-67
2022/08/21 04:22:11;;;;;;;;;;;19.30;79.00;;;;;;5048375;28;19947;-68
2022/08/21 04:24:36;;;;;;;;;;;19.30;79.00;;;;;;5063539;28;19943;-68
2022/08/21 04:27:02;;;;;;;;;;;19.30;79.00;;;;;;5048917;28;19916;-67
2022/08/21 04:29:27;;;;;;;;;;;19.30;79.00;;;;;;5047335;28;19919;-68
2022/08/21 04:31:53;;;;;;;;;;;19.20;78.90;;;;;;5033045;28;19943;-68
2022/08/21 04:34:18;;;;;;;;;;;19.20;79.10;;;;;;5050076;28;20365;-67
2022/08/21 04:36:44;;;;;;;;;;;19.20;79.00;;;;;;5050180;28;19952;-67
2022/08/21 04:39:09;;;;;;;;;;;19.20;79.00;;;;;;5046913;28;20449;-68
2022/08/21 04:41:35;;;;;;;;;;;19.20;79.10;;;;;;5047693;28;19923;-69
2022/08/21 04:44:01;;;;;;;;;;;19.20;79.00;;;;;;5036981;28;19920;-67
2022/08/21 04:46:27;;;;;;;;;;;19.20;79.10;;;;;;5047823;28;20031;-67
2022/08/21 04:48:52;;;;;;;;;;;19.20;79.10;;;;;;5047200;28;19913;-67
2022/08/21 04:51:37;;;;;;;;;;;19.10;79.00;;;;;;5046517;28;19916;-67
2022/08/21 04:54:11;;;;;;;;;;;19.10;79.00;;;;;;5046767;28;19912;-68
2022/08/21 04:56:41;;;;;;;;;;;19.10;79.10;;;;;;5046506;28;19954;-67
2022/08/21 04:59:11;;;;;;;;;;;19.10;79.00;;;;;;5047542;28;19917;-67
2022/08/21 05:01:37;;;;;;;;;;;19.10;79.20;;;;;;5057641;28;19913;-68
2022/08/21 05:04:04;;;;;;;;;;;19.10;79.10;;;;;;5064053;28;20041;-68
2022/08/21 05:06:31;;;;;;;;;;;19.10;79.10;;;;;;5054880;28;19923;-67
2022/08/21 05:08:57;;;;;;;;;;;19.10;79.20;;;;;;5046073;28;20518;-67
2022/08/21 05:11:23;;;;;;;;;;;19.10;79.10;;;;;;5046565;28;20391;-68
2022/08/21 05:13:49;;;;;;;;;;;19.10;79.10;;;;;;5046529;28;19926;-68
2022/08/21 05:16:15;;;;;;;;;;;19.10;79.30;;;;;;5047189;28;19962;-68
2022/08/21 05:18:41;;;;;;;;;;;19.10;79.20;;;;;;5046472;28;20026;-67
2022/08/21 05:21:07;;;;;;;;;;;19.10;79.10;;;;;;5046134;28;19983;-68
2022/08/21 05:23:33;;;;;;;;;;;19.10;79.20;;;;;;5045790;28;19917;-67
2022/08/21 05:25:58;;;;;;;;;;;19.10;79.30;;;;;;5046701;28;20031;-67
2022/08/21 05:28:25;;;;;;;;;;;19.10;79.30;;;;;;5046678;28;20023;-67
2022/08/21 05:30:50;;;;;;;;;;;19.10;79.20;;;;;;5046423;28;20003;-67
2022/08/21 05:33:16;;;;;;;;;;;19.10;79.30;;;;;;5052089;28;20007;-67
2022/08/21 05:35:41;;;;;;;;;;;19.10;79.30;;;;;;5049713;28;19920;-67
2022/08/21 05:38:07;;;;;;;;;;;19.00;79.30;;;;;;5046226;28;19909;-68
2022/08/21 05:40:33;;;;;;;;;;;19.10;79.40;;;;;;5040769;28;20276;-68
2022/08/21 05:42:59;;;;;;;;;;;19.10;79.40;;;;;;5046255;28;20282;-68
2022/08/21 05:45:29;;;;;;;;;;;19.00;79.30;;;;;;5041674;28;19917;-68
2022/08/21 05:47:55;;;;;;;;;;;19.00;79.20;;;;;;5047327;28;20654;-67
2022/08/21 05:50:20;;;;;;;;;;;19.00;79.20;;;;;;5045100;28;19942;-68
2022/08/21 05:52:46;;;;;;;;;;;19.00;79.30;;;;;;5046032;28;19920;-68
2022/08/21 05:55:12;;;;;;;;;;;19.00;79.20;;;;;;5060993;28;19951;-67
2022/08/21 05:57:40;;;;;;;;;;;19.10;79.20;;;;;;5064086;28;20377;-67
2022/08/21 06:00:08;;;;;;;;;;;19.00;79.00;;;;;;5064644;28;19912;-67
2022/08/21 06:02:35;;;;;;;;;;;19.00;79.10;;;;;;5055546;28;19971;-67
2022/08/21 06:05:00;;;;;;;;;;;19.00;79.10;;;;;;5047011;28;19921;-68
2022/08/21 06:07:26;;;;;;;;;;;19.10;79.20;;;;;;5028174;28;19909;-68
2022/08/21 06:09:51;;;;;;;;;;;19.00;79.00;;;;;;5045909;28;19913;-68
2022/08/21 06:12:17;;;;;;;;;;;19.00;78.90;;;;;;5045130;28;19967;-68
2022/08/21 06:14:42;;;;;;;;;;;19.00;78.80;;;;;;5054311;28;19929;-68
2022/08/21 06:17:09;;;;;;;;;;;19.00;78.80;;;;;;5060254;28;19917;-68
2022/08/21 06:19:35;;;;;;;;;;;19.00;78.80;;;;;;5061622;28;19916;-68
2022/08/21 06:22:01;;;;;;;;;;;19.00;78.60;;;;;;5061752;28;19924;-68
2022/08/21 06:24:26;;;;;;;;;;;19.00;78.60;;;;;;5060994;28;19920;-67
2022/08/21 06:26:52;;;;;;;;;;;19.00;78.70;;;;;;5046554;28;19916;-67
2022/08/21 06:29:19;;;;;;;;;;;19.00;78.70;;;;;;5055571;28;20290;-67
2022/08/21 06:31:45;;;;;;;;;;;19.00;78.70;;;;;;5059924;28;19912;-67
2022/08/21 06:34:11;;;;;;;;;;;19.00;78.70;;;;;;5063310;28;20035;-67
2022/08/21 06:36:36;;;;;;;;;;;19.10;78.70;;;;;;5066805;28;20007;-67
2022/08/21 06:39:02;;;;;;;;;;;19.10;78.70;;;;;;5061179;28;19978;-68
2022/08/21 06:41:28;;;;;;;;;;;19.10;78.50;;;;;;5049644;28;19913;-67
2022/08/21 06:43:54;;;;;;;;;;;19.10;78.40;;;;;;5049504;28;20015;-67
2022/08/21 06:46:20;;;;;;;;;;;19.10;78.40;;;;;;5049427;28;19919;-67
2022/08/21 06:48:45;;;;;;;;;;;19.10;78.50;;;;;;5049878;28;19912;-68
2022/08/21 06:51:10;;;;;;;;;;;19.10;78.40;;;;;;5049148;28;19999;-67
2022/08/21 06:53:36;;;;;;;;;;;19.10;78.40;;;;;;5048933;28;19909;-68
2022/08/21 06:56:02;;;;;;;;;;;19.10;78.30;;;;;;5049775;28;19924;-68
2022/08/21 06:58:28;;;;;;;;;;;19.20;78.40;;;;;;5068029;28;19912;-67
2022/08/21 07:00:54;;;;;;;;;;;19.20;78.30;;;;;;5067510;28;20011;-67
2022/08/21 07:03:24;;;;;;;;;;;19.20;78.20;;;;;;5037475;28;20019;-70
2022/08/21 07:05:51;;;;;;;;;;;19.20;78.20;;;;;;5049389;28;19913;-68
2022/08/21 07:08:16;;;;;;;;;;;19.20;78.00;;;;;;5049189;28;19912;-67
2022/08/21 07:10:42;;;;;;;;;;;19.20;78.10;;;;;;5048753;28;19913;-67
2022/08/21 07:13:08;;;;;;;;;;;19.30;78.10;;;;;;5049773;28;20315;-68
2022/08/21 07:15:33;;;;;;;;;;;19.30;78.10;;;;;;5049309;28;19932;-68
2022/08/21 07:17:59;;;;;;;;;;;19.30;78.00;;;;;;5048734;28;19940;-68
2022/08/21 07:20:26;;;;;;;;;;;19.30;78.00;;;;;;5048155;28;19913;-68
2022/08/21 07:22:51;;;;;;;;;;;19.30;78.00;;;;;;5048094;28;19909;-68
2022/08/21 07:25:17;;;;;;;;;;;19.30;78.00;;;;;;5048416;28;20442;-68
2022/08/21 07:27:42;;;;;;;;;;;19.30;77.80;;;;;;5048392;28;19912;-68
2022/08/21 07:30:08;;;;;;;;;;;19.30;78.20;;;;;;5048653;28;19939;-68
2022/08/21 07:32:33;;;;;;;;;;;19.40;78.50;;;;;;5052814;28;19912;-68
2022/08/21 07:34:59;;;;;;;;;;;19.40;77.90;;;;;;5048084;28;19921;-68
2022/08/21 07:37:24;;;;;;;;;;;19.40;77.70;;;;;;5051218;28;19912;-68
2022/08/21 07:39:51;;;;;;;;;;;19.40;77.60;;;;;;5047780;28;19912;-68
2022/08/21 07:42:17;;;;;;;;;;;19.50;77.50;;;;;;5047099;28;20485;-67
2022/08/21 07:44:42;;;;;;;;;;;19.50;77.40;;;;;;5054693;28;19924;-68
2022/08/21 07:47:08;;;;;;;;;;;19.50;77.50;;;;;;5047741;28;19994;-68
2022/08/21 07:49:33;;;;;;;;;;;19.50;77.40;;;;;;5047595;28;20277;-67
2022/08/21 07:51:59;;;;;;;;;;;19.50;77.30;;;;;;5046868;28;19913;-68
2022/08/21 07:54:25;;;;;;;;;;;19.60;77.20;;;;;;5047715;28;19966;-68
2022/08/21 07:56:50;;;;;;;;;;;19.60;77.20;;;;;;5059460;28;19919;-69
2022/08/21 07:59:16;;;;;;;;;;;19.60;77.20;;;;;;5066104;28;19913;-68
2022/08/21 08:01:41;;;;;;;;;;;19.60;77.00;;;;;;5064985;28;19916;-68
2022/08/21 08:04:07;;;;;;;;;;;19.70;77.00;;;;;;5047132;28;19917;-70
2022/08/21 08:06:32;;;;;;;;;;;19.70;77.00;;;;;;5046591;28;19913;-68
2022/08/21 08:08:58;;;;;;;;;;;19.70;76.90;;;;;;5048563;28;20236;-68
2022/08/21 08:11:23;;;;;;;;;;;19.70;76.80;;;;;;5047159;28;19959;-68
2022/08/21 08:13:50;;;;;;;;;;;19.70;77.50;;;;;;5051105;28;19916;-68
2022/08/21 08:16:16;;;;;;;;;;;19.80;76.80;;;;;;5054619;28;19939;-68
2022/08/21 08:18:42;;;;;;;;;;;19.80;76.70;;;;;;5048551;28;20588;-68
2022/08/21 08:21:08;;;;;;;;;;;19.80;76.60;;;;;;5029118;28;19919;-68
2022/08/21 08:23:33;;;;;;;;;;;19.80;76.50;;;;;;5047535;28;20033;-68
2022/08/21 08:25:59;;;;;;;;;;;19.80;76.40;;;;;;5047921;28;20369;-68
2022/08/21 08:28:25;;;;;;;;;;;19.90;76.40;;;;;;5046512;28;19912;-68
2022/08/21 08:30:50;;;;;;;;;;;19.90;76.40;;;;;;5049979;28;19912;-68
2022/08/21 08:33:16;;;;;;;;;;;19.90;76.30;;;;;;5037182;28;19913;-68
2022/08/21 08:35:44;;;;;;;;;;;19.90;76.20;;;;;;5046610;28;19925;-68
2022/08/21 08:38:09;;;;;;;;;;;19.90;76.20;;;;;;5047422;28;19962;-68
2022/08/21 08:40:55;;;;;;;;;;;19.90;76.00;;;;;;5046075;28;19952;-68
2022/08/21 08:43:21;;;;;;;;;;;20.00;76.00;;;;;;5053093;28;19921;-68
2022/08/21 08:45:49;;;;;;;;;;;20.00;75.90;;;;;;5062022;28;20382;-68
2022/08/21 08:48:31;;;;;;;;;;;20.00;75.70;;;;;;5053423;28;19919;-68
2022/08/21 08:50:59;;;;;;;;;;;20.10;75.80;;;;;;5049371;28;19939;-68
2022/08/21 08:53:24;;;;;;;;;;;20.10;75.60;;;;;;5046876;28;19913;-68
2022/08/21 08:55:51;;;;;;;;;;;20.20;75.60;;;;;;5046190;28;19913;-68
2022/08/21 08:58:23;;;;;;;;;;;20.10;75.50;;;;;;5046094;28;19944;-68
2022/08/21 09:00:50;;;;;;;;;;;20.20;75.30;;;;;;5045393;28;19913;-68
2022/08/21 09:03:16;;;;;;;;;;;20.20;75.20;;;;;;5054317;28;19940;-68
2022/08/21 09:05:47;;;;;;;;;;;20.20;75.20;;;;;;5046487;28;19916;-67
2022/08/21 09:08:13;;;;;;;;;;;20.30;75.10;;;;;;5045722;28;19954;-68
2022/08/21 09:10:47;;;;;;;;;;;20.30;75.00;;;;;;5045207;28;20293;-68
2022/08/21 09:13:31;;;;;;;;;;;20.30;74.90;;;;;;5049735;28;19913;-68
2022/08/21 09:15:56;;;;;;;;;;;20.40;74.80;;;;;;5045542;28;20416;-68
2022/08/21 09:18:25;;;;;;;;;;;20.40;74.80;;;;;;5050031;28;19913;-68
2022/08/21 09:20:50;;;;;;;;;;;20.40;74.70;;;;;;5044874;28;20041;-68
2022/08/21 09:23:25;;;;;;;;;;;20.50;74.60;;;;;;5045179;28;20028;-68
2022/08/21 09:25:50;;;;;;;;;;;20.50;74.40;;;;;;5045100;28;20332;-68
2022/08/21 09:28:16;;;;;;;;;;;20.50;74.20;;;;;;5045545;28;19920;-68
2022/08/21 09:30:41;;;;;;;;;;;20.60;74.10;;;;;;5045181;28;19990;-68
2022/08/21 09:33:09;;;;;;;;;;;20.70;74.00;;;;;;5052161;28;19919;-68
2022/08/21 09:35:36;;;;;;;;;;;20.70;73.90;;;;;;5049409;28;19924;-68
2022/08/21 09:38:07;;;;;;;;;;;20.70;73.90;;;;;;5064664;28;19916;-68
2022/08/21 09:40:44;;;;;;;;;;;20.80;73.80;;;;;;5064247;28;20573;-68
2022/08/21 09:43:16;;;;;;;;;;;20.80;73.70;;;;;;5055481;28;19912;-68
2022/08/21 09:45:43;;;;;;;;;;;20.90;73.60;;;;;;5045311;28;19920;-68
2022/08/21 09:48:17;;;;;;;;;;;20.90;73.50;;;;;;5045195;28;20633;-68
2022/08/21 09:50:43;;;;;;;;;;;20.90;73.40;;;;;;5045935;28;20527;-68
2022/08/21 09:53:26;;;;;;;;;;;21.00;73.40;;;;;;5045610;28;19936;-68
2022/08/21 09:58:40;;;;;;;;;;;21.00;73.20;;;;;;5064189;28;19971;-68
2022/08/21 10:01:07;;;;;;;;;;;21.00;73.20;;;;;;5068722;28;19999;-68
2022/08/21 10:03:32;;;;;;;;;;;21.10;73.00;;;;;;5055369;28;19913;-68
2022/08/21 10:06:05;;;;;;;;;;;21.10;72.80;;;;;;5050233;28;19913;-68
2022/08/21 10:08:31;;;;;;;;;;;21.10;72.80;;;;;;5045486;28;19923;-68
2022/08/21 10:11:01;;;;;;;;;;;21.20;72.80;;;;;;5049796;28;20397;-68
2022/08/21 10:13:26;;;;;;;;;;;21.30;72.60;;;;;;5053852;28;19916;-68
2022/08/21 10:16:11;;;;;;;;;;;21.30;72.10;;;;;;5032430;28;19913;-67
2022/08/21 10:18:42;;;;;;;;;;;21.30;72.20;;;;;;5050034;28;19974;-68
2022/08/21 10:21:10;;;;;;;;;;;21.30;72.30;;;;;;5050018;28;19916;-68
2022/08/21 10:23:38;;;;;;;;;;;21.30;72.50;;;;;;5051253;28;19925;-67
2022/08/21 10:26:07;;;;;;;;;;;21.40;72.30;;;;;;5049541;28;20319;-68
2022/08/21 10:28:43;;;;;;;;;;;21.40;72.30;;;;;;5049823;28;20042;-68
2022/08/21 10:31:18;;;;;;;;;;;21.40;71.90;;;;;;5049462;28;20361;-68
2022/08/21 10:34:06;;;;;;;;;;;21.60;72.20;;;;;;5056367;28;20003;-68
2022/08/21 10:36:35;;;;;;;;;;;21.60;71.90;;;;;;5064098;28;19916;-68
2022/08/21 10:39:01;;;;;;;;;;;21.60;71.40;;;;;;5067689;28;19928;-68
2022/08/21 10:41:29;;;;;;;;;;;21.80;71.60;;;;;;5053139;28;19924;-67
2022/08/21 10:44:13;;;;;;;;;;;21.80;72.00;;;;;;5052034;28;19921;-68
2022/08/21 10:46:57;;;;;;;;;;;21.90;71.80;;;;;;5049212;28;19928;-68
2022/08/21 10:49:32;;;;;;;;;;;22.00;71.60;;;;;;5068327;28;19958;-68
2022/08/21 10:52:16;;;;;;;;;;;22.10;71.60;;;;;;5048785;28;19913;-68
2022/08/21 10:54:51;;;;;;;;;;;22.00;71.70;;;;;;5049110;28;19942;-68
2022/08/21 10:57:23;;;;;;;;;;;22.10;70.90;;;;;;5049951;28;19919;-68
2022/08/21 10:59:55;;;;;;;;;;;22.20;71.10;;;;;;5048976;28;20019;-68
2022/08/21 11:02:26;;;;;;;;;;;22.30;70.90;;;;;;5051599;28;20346;-68
2022/08/21 11:04:54;;;;;;;;;;;22.40;71.40;;;;;;5048833;28;19921;-68
2022/08/21 11:07:20;;;;;;;;;;;22.50;71.00;;;;;;5047522;28;19913;-68
2022/08/21 11:09:47;;;;;;;;;;;22.60;70.40;;;;;;5048403;28;20600;-68
2022/08/21 11:12:35;;;;;;;;;;;22.70;70.60;;;;;;5050777;28;19924;-68
2022/08/21 11:15:04;;;;;;;;;;;22.80;70.40;;;;;;5065316;28;19935;-68
2022/08/21 11:17:33;;;;;;;;;;;22.90;69.80;;;;;;5049935;28;19923;-69
2022/08/21 11:20:12;;;;;;;;;;;23.00;69.50;;;;;;5048007;28;20444;-69
2022/08/21 11:22:40;;;;;;;;;;;23.10;69.90;;;;;;5046987;28;20485;-69
2022/08/21 11:25:13;;;;;;;;;;;23.30;70.10;;;;;;5047582;28;19955;-69
2022/08/21 11:27:41;;;;;;;;;;;23.30;69.30;;;;;;5047617;28;19917;-69
2022/08/21 11:30:08;;;;;;;;;;;23.40;69.80;;;;;;5047787;28;20526;-69
2022/08/21 11:32:52;;;;;;;;;;;23.40;69.60;;;;;;5054817;28;20023;-69
2022/08/21 11:35:36;;;;;;;;;;;23.50;69.70;;;;;;5048269;28;19923;-69
2022/08/21 11:38:03;;;;;;;;;;;23.60;69.70;;;;;;5060520;28;19916;-69
2022/08/21 11:40:40;;;;;;;;;;;23.70;69.00;;;;;;5066972;28;19951;-69
2022/08/21 11:43:12;;;;;;;;;;;23.80;69.00;;;;;;5039956;28;19948;-70
2022/08/21 11:45:37;;;;;;;;;;;23.90;68.70;;;;;;5047660;28;19917;-67
2022/08/21 11:48:21;;;;;;;;;;;24.00;68.60;;;;;;5047697;28;19912;-67
2022/08/21 11:50:47;;;;;;;;;;;24.10;67.40;;;;;;5051754;28;20289;-67
2022/08/21 11:53:24;;;;;;;;;;;24.10;67.00;;;;;;5047487;28;19916;-67
2022/08/21 11:55:58;;;;;;;;;;;24.10;66.90;;;;;;5047371;28;19919;-67
2022/08/21 11:58:44;;;;;;;;;;;24.20;67.30;;;;;;5046615;28;20007;-67
2022/08/21 12:01:16;;;;;;;;;;;24.20;67.80;;;;;;5061361;28;19913;-67
2022/08/21 12:03:52;;;;;;;;;;;24.30;67.70;;;;;;5061722;28;20015;-67
2022/08/21 12:06:27;;;;;;;;;;;24.40;67.30;;;;;;5047056;28;20416;-67
2022/08/21 12:09:04;;;;;;;;;;;24.40;67.80;;;;;;5048465;28;19909;-67
2022/08/21 12:11:30;;;;;;;;;;;24.40;67.80;;;;;;5048783;28;19923;-67
2022/08/21 12:13:55;;;;;;;;;;;24.50;67.90;;;;;;5050383;28;20284;-67
2022/08/21 12:16:33;;;;;;;;;;;24.50;67.90;;;;;;5028874;28;20329;-67
2022/08/21 12:19:22;;;;;;;;;;;24.50;67.90;;;;;;5058094;28;19944;-67
2022/08/21 12:21:47;;;;;;;;;;;24.60;67.60;;;;;;5052761;28;19912;-67
2022/08/21 12:24:12;;;;;;;;;;;24.70;67.50;;;;;;5046579;28;20565;-68
2022/08/21 12:26:47;;;;;;;;;;;24.70;67.70;;;;;;5046467;28;19917;-68
2022/08/21 12:29:29;;;;;;;;;;;24.80;66.20;;;;;;5046298;28;19913;-68
2022/08/21 12:32:00;;;;;;;;;;;24.90;67.20;;;;;;5045089;28;19934;-68
2022/08/21 12:34:31;;;;;;;;;;;24.90;67.40;;;;;;5057628;28;20046;-68
2022/08/21 12:36:59;;;;;;;;;;;25.00;67.60;;;;;;5056408;28;20373;-68
2022/08/21 12:39:27;;;;;;;;;;;25.00;67.40;;;;;;5045650;28;19912;-68
2022/08/21 12:41:58;;;;;;;;;;;25.10;66.90;;;;;;5045669;28;19921;-68
2022/08/21 12:44:29;;;;;;;;;;;25.10;66.60;;;;;;5045622;28;19924;-68
2022/08/21 12:46:59;;;;;;;;;;;25.10;67.30;;;;;;5058886;28;19912;-68
2022/08/21 12:49:31;;;;;;;;;;;25.20;67.60;;;;;;5052109;28;19912;-68
2022/08/21 12:52:00;;;;;;;;;;;25.20;67.30;;;;;;5046567;28;19920;-68
2022/08/21 12:54:27;;;;;;;;;;;25.30;66.80;;;;;;5046086;28;19913;-68
2022/08/21 12:56:57;;;;;;;;;;;25.30;65.50;;;;;;5045717;28;20667;-68
2022/08/21 12:59:23;;;;;;;;;;;25.30;67.00;;;;;;5047079;28;19913;-68
2022/08/21 13:01:50;;;;;;;;;;;25.40;67.00;;;;;;5048515;28;19919;-67
2022/08/21 13:04:17;;;;;;;;;;;25.40;66.60;;;;;;5054349;28;19917;-67
2022/08/21 13:06:44;;;;;;;;;;;25.40;67.00;;;;;;5047396;28;20003;-68
2022/08/21 13:09:12;;;;;;;;;;;25.40;66.60;;;;;;5064771;28;20316;-67
2022/08/21 13:11:39;;;;;;;;;;;25.40;65.00;;;;;;5064920;28;19917;-68
2022/08/21 13:14:06;;;;;;;;;;;25.40;66.00;;;;;;5052154;28;20467;-68
2022/08/21 13:16:31;;;;;;;;;;;25.40;66.40;;;;;;5027860;28;20361;-68
2022/08/21 13:19:05;;;;;;;;;;;25.40;67.30;;;;;;5048020;28;19920;-68
2022/08/21 13:21:39;;;;;;;;;;;25.30;66.30;;;;;;5033010;28;21358;-67
2022/08/21 13:24:19;;;;;;;;;;;25.40;66.60;;;;;;5061331;28;20644;-68
2022/08/21 13:26:44;;;;;;;;;;;25.40;66.50;;;;;;5056538;28;19913;-67
2022/08/21 13:29:11;;;;;;;;;;;25.50;67.20;;;;;;5045417;28;20445;-68
2022/08/21 13:31:37;;;;;;;;;;;25.50;66.90;;;;;;5047544;28;19912;-68
2022/08/21 13:34:03;;;;;;;;;;;25.60;66.10;;;;;;5049511;28;19919;-68
2022/08/21 13:36:31;;;;;;;;;;;25.60;66.50;;;;;;5045276;28;20269;-68
2022/08/21 13:38:57;;;;;;;;;;;25.60;66.00;;;;;;5045169;28;19909;-68
2022/08/21 13:41:31;;;;;;;;;;;25.70;66.20;;;;;;5044910;28;19909;-68
2022/08/21 13:44:01;;;;;;;;;;;25.80;66.00;;;;;;5045591;28;19917;-68
2022/08/21 13:46:28;;;;;;;;;;;25.90;65.20;;;;;;5045031;28;19920;-68
2022/08/21 13:48:55;;;;;;;;;;;25.80;65.40;;;;;;5049577;28;19918;-68
2022/08/21 13:51:21;;;;;;;;;;;25.80;65.60;;;;;;5045007;28;19913;-67
2022/08/21 13:53:51;;;;;;;;;;;25.80;65.50;;;;;;5045246;28;19913;-67
2022/08/21 13:56:40;;;;;;;;;;;25.80;65.80;;;;;;5045954;28;20586;-68
2022/08/21 13:59:06;;;;;;;;;;;25.80;65.80;;;;;;5048068;28;20362;-68
2022/08/21 14:01:36;;;;;;;;;;;25.90;65.00;;;;;;5062139;28;19917;-68
2022/08/21 14:04:08;;;;;;;;;;;26.00;65.20;;;;;;5046542;28;19920;-68
2022/08/21 14:06:36;;;;;;;;;;;26.00;65.00;;;;;;5045556;28;19939;-68
2022/08/21 14:09:15;;;;;;;;;;;26.00;65.40;;;;;;5045430;28;20028;-68
2022/08/21 14:11:40;;;;;;;;;;;26.00;64.40;;;;;;5040941;28;20300;-68
2022/08/21 14:14:15;;;;;;;;;;;26.10;64.50;;;;;;5033718;28;19913;-68
2022/08/21 14:16:44;;;;;;;;;;;26.20;63.90;;;;;;5051101;28;19916;-68
2022/08/21 14:19:17;;;;;;;;;;;26.30;63.80;;;;;;5045954;28;19920;-68
2022/08/21 14:21:43;;;;;;;;;;;26.50;63.70;;;;;;5045339;28;20385;-68
2022/08/21 14:24:09;;;;;;;;;;;26.50;63.50;;;;;;5045638;28;19923;-68